»·PEaware :: N1985K KSNA-KBUR

N1985K :: KSNA-KBUR

FLIGHT INFORMATION

Flight Status: Arrived
Operator: Privately registered:
United States
More flights under this callsign
Pilot: Kevin G. (31832)
Aircraft: CESSNA 172 SKYHAWK
(C172)
More flights by this aircraft type
Origin: KSNA John Wayne-Orange Co
United States
Destination: KBUR Bob Hope-Burbank
United States
More flights between these airports :: More routes between these airports
Route: +SLI V23 POPPR SMO125R SMO SMO311R SILEX
File this flight plan on PilotEdge
Remarks:
Altitude:
(Current/Filed)
4,000ft
Speed:
(Current/Filed)
100kts
Departed: 19-Nov-20 12:24 PM
Arrived: 19-Nov-20 01:06 PM
Distance/Time
Traveled:
40nm/0:42
Distance/Time
To Go:
Arrived

Flight Plot

Page will automatically refresh every two minutes.


Map Options




Map Legend


Flown Route
Filed Route
Departure Airport
Arrival Airport
Navaid (VOR, NDB)
Fix

Horizontal Profiles

Position Reports

Time Latitude Longitude Heading Altitude Ground
Speed
19-Nov-20 12:15 33.671939 -117.867404 94 52ft 0kts
19-Nov-20 12:16 33.671939 -117.867404 94 52ft 0kts
19-Nov-20 12:17 33.671939 -117.867404 94 52ft 0kts
19-Nov-20 12:18 33.671939 -117.867404 94 52ft 0kts
19-Nov-20 12:19 33.671939 -117.867404 94 52ft 0kts
19-Nov-20 12:20 33.673446 -117.867004 0 57ft 16kts
19-Nov-20 12:21 33.678430 -117.864375 28 47ft 21kts
19-Nov-20 12:22 33.679973 -117.863640 295 45ft 0kts
19-Nov-20 12:23 33.672074 -117.869353 210 211ft 78kts
19-Nov-20 12:24 33.654228 -117.888295 222 937ft 90kts
19-Nov-20 12:25 33.637019 -117.906934 222 1822ft 74kts
19-Nov-20 12:26 33.617835 -117.927344 222 2156ft 105kts
19-Nov-20 12:27 33.599445 -117.946982 222 2997ft 70kts
19-Nov-20 12:28 33.585550 -117.961912 222 3371ft 75kts
19-Nov-20 12:29 33.567009 -117.982418 234 3822ft 101kts
19-Nov-20 12:30 33.586114 -118.008781 321 4012ft 123kts
19-Nov-20 12:31 33.613705 -118.034767 321 4024ft 128kts
19-Nov-20 12:32 33.641903 -118.061314 321 4029ft 128kts
19-Nov-20 12:33 33.668330 -118.086256 321 4027ft 112kts
19-Nov-20 12:34 33.692372 -118.108986 321 4035ft 109kts
19-Nov-20 12:35 33.716166 -118.131526 321 4033ft 109kts
19-Nov-20 12:36 33.739971 -118.154116 321 4030ft 108kts
19-Nov-20 12:37 33.763675 -118.176630 321 4030ft 108kts
19-Nov-20 12:38 33.787258 -118.199052 321 4030ft 108kts
19-Nov-20 12:39 33.810764 -118.221383 321 4030ft 106kts
19-Nov-20 12:40 33.833110 -118.242664 321 4030ft 100kts
19-Nov-20 12:41 33.845826 -118.271637 290 4030ft 100kts
19-Nov-20 12:42 33.854600 -118.303402 309 4026ft 100kts
19-Nov-20 12:43 33.876999 -118.322607 320 4029ft 99kts
19-Nov-20 12:44 33.897571 -118.343359 320 4026ft 94kts
19-Nov-20 12:45 33.917386 -118.363289 320 4029ft 92kts
19-Nov-20 12:46 33.937329 -118.383330 320 4040ft 104kts
19-Nov-20 12:47 33.960685 -118.406815 321 4030ft 111kts
19-Nov-20 12:48 33.984485 -118.430773 321 4028ft 111kts
19-Nov-20 12:49 34.008174 -118.454553 322 4030ft 110kts
19-Nov-20 12:50 34.033558 -118.475687 327 4032ft 111kts
19-Nov-20 12:51 34.059087 -118.496305 327 4030ft 111kts
19-Nov-20 12:52 34.084761 -118.517119 327 4035ft 111kts
19-Nov-20 12:54 34.110512 -118.538017 327 4042ft 112kts
19-Nov-20 12:55 34.136366 -118.559021 327 4035ft 112kts
19-Nov-20 12:56 34.162177 -118.579521 327 4035ft 110kts
19-Nov-20 12:57 34.187038 -118.599359 327 4034ft 98kts
19-Nov-20 12:58 34.189281 -118.588885 156 3418ft 124kts
19-Nov-20 12:59 34.193339 -118.557891 60 3143ft 93kts
19-Nov-20 13:00 34.200006 -118.530332 88 3136ft 82kts
19-Nov-20 13:01 34.199665 -118.503594 89 2937ft 87kts
19-Nov-20 13:02 34.199255 -118.472075 88 2444ft 98kts
19-Nov-20 13:03 34.198818 -118.438494 88 1880ft 97kts
19-Nov-20 13:04 34.198409 -118.407021 88 1371ft 91kts
19-Nov-20 13:05 34.198011 -118.376496 89 898ft 90kts
19-Nov-20 13:06 34.196843 -118.360177 123 715ft 0kts
19-Nov-20 13:07 34.196834 -118.360161 119 715ft 0kts
19-Nov-20 13:07 34.196824 -118.360042 91 715ft 0kts
19-Nov-20 13:09 34.196824 -118.360042 91 715ft 0kts
19-Nov-20 13:09 34.196824 -118.360042 91 715ft 0kts
19-Nov-20 13:11 34.196207 -118.358197 96 712ft 0kts

Navigation Log

Ident Type
Flight plan parsing failed, navigation log unavailable